createdAt,value
2018-03-08T00:00:55.892Z,62.62
2018-03-08T00:01:55.878Z,62.34
2018-03-08T00:02:55.852Z,62.53
2018-03-08T00:03:56.101Z,62.91
2018-03-08T00:04:55.811Z,61.96
2018-03-08T00:05:55.792Z,62.34
2018-03-08T00:06:55.778Z,62.34
2018-03-08T00:07:56.016Z,62.43
2018-03-08T00:08:55.992Z,62.34
2018-03-08T00:09:55.712Z,62.43
2018-03-08T00:10:55.687Z,62.24
2018-03-08T00:11:55.664Z,62.24
2018-03-08T00:12:55.909Z,62.34
2018-03-08T00:13:55.886Z,62.15
2018-03-08T00:14:55.870Z,62.24
2018-03-08T00:15:55.845Z,62.34
2018-03-08T00:16:55.561Z,62.53
2018-03-08T00:17:55.805Z,62.43
2018-03-08T00:18:55.787Z,62.24
2018-03-08T00:19:55.759Z,62.34
2018-03-08T00:20:55.742Z,61.96
2018-03-08T00:21:55.725Z,62.62
2018-03-08T00:22:55.697Z,61.77
2018-03-08T00:23:55.413Z,62.05
2018-03-08T00:24:55.392Z,62.15
2018-03-08T00:25:55.636Z,61.77
2018-03-08T00:26:55.348Z,61.3
2018-03-08T00:27:55.597Z,61.87
2018-03-08T00:28:55.309Z,61.3
2018-03-08T00:29:55.548Z,61.87
2018-03-08T00:30:55.267Z,61.68
2018-03-08T00:31:55.510Z,61.39
2018-03-08T00:32:55.493Z,61.49
2018-03-08T00:33:55.466Z,61.87
2018-03-08T00:34:55.448Z,61.68
2018-03-08T00:35:55.428Z,61.77
2018-03-08T00:36:55.408Z,61.68
2018-03-08T00:37:55.386Z,61.68
2018-03-08T00:38:55.366Z,61.68
2018-03-08T00:39:55.076Z,61.77
2018-03-08T00:40:55.059Z,61.77
2018-03-08T00:41:55.297Z,61.87
2018-03-08T00:42:55.012Z,61.39
2018-03-08T00:43:54.996Z,62.15
2018-03-08T00:44:55.239Z,61.58
2018-03-08T00:45:55.218Z,62.05
2018-03-08T00:46:54.934Z,62.05
2018-03-08T00:47:54.911Z,62.05
2018-03-08T00:48:54.889Z,61.96
2018-03-08T00:49:54.866Z,62.05
2018-03-08T00:50:54.847Z,62.24
2018-03-08T00:51:54.826Z,62.34
2018-03-08T00:52:55.068Z,62.62
2018-03-08T00:53:54.787Z,63.1
2018-03-08T00:54:54.766Z,63.67
2018-03-08T00:55:54.743Z,63.86
2018-03-08T00:56:54.717Z,65
2018-03-08T00:57:54.964Z,65.09
2018-03-08T00:58:54.947Z,65.09
2018-03-08T00:59:54.659Z,64.9
2018-03-08T01:00:54.639Z,65.19
2018-03-08T01:01:54.877Z,65.37
2018-03-08T01:02:54.591Z,65.66
2018-03-08T01:03:54.838Z,65.85
2018-03-08T01:04:54.821Z,65.85
2018-03-08T01:05:54.795Z,66.14
2018-03-08T01:06:54.778Z,66.8
2018-03-08T01:07:54.751Z,67.18
2018-03-08T01:08:54.468Z,67.18
2018-03-08T01:09:54.715Z,67.08
2018-03-08T01:10:54.690Z,67.65
2018-03-08T01:11:54.403Z,67.65
2018-03-08T01:12:54.644Z,68.13
2018-03-08T01:13:54.628Z,67.94
2018-03-08T01:14:54.353Z,67.37
2018-03-08T01:15:54.319Z,68.13
2018-03-08T01:16:54.616Z,67.94
2018-03-08T01:17:54.549Z,68.79
2018-03-08T01:18:54.257Z,68.23
2018-03-08T01:19:54.235Z,68.89
2018-03-08T01:20:54.479Z,68.51
2018-03-08T01:21:54.195Z,68.51
2018-03-08T01:22:54.173Z,68.7
2018-03-08T01:23:54.155Z,69.74
2018-03-08T01:24:54.129Z,69.27
2018-03-08T01:25:54.375Z,69.55
2018-03-08T01:26:54.353Z,69.65
2018-03-08T01:27:54.066Z,70.4
2018-03-08T01:28:54.312Z,70.5
2018-03-08T01:29:54.293Z,70.31
2018-03-08T01:30:54.015Z,70.21
2018-03-08T01:32:13.460Z,69.65
2018-03-08T01:32:53.965Z,68.98
2018-03-08T01:33:54.204Z,69.27
2018-03-08T01:34:54.188Z,68.98
2018-03-08T01:35:54.101Z,68.89
2018-03-08T01:36:54.142Z,68.79
2018-03-08T01:37:53.857Z,68.41
2018-03-08T01:38:54.103Z,68.13
2018-03-08T01:39:53.816Z,68.23
2018-03-08T01:40:53.797Z,68.13
2018-03-08T01:41:54.041Z,67.85
2018-03-08T01:42:54.020Z,67.46
2018-03-08T01:43:54.000Z,67.46
2018-03-08T01:44:53.975Z,67.46
2018-03-08T01:45:53.690Z,66.89
2018-03-08T01:46:53.676Z,66.99
2018-03-08T01:47:53.919Z,67.08
2018-03-08T01:48:53.900Z,66.89
2018-03-08T01:49:53.609Z,66.61
2018-03-08T01:50:53.853Z,66.52
2018-03-08T01:51:53.567Z,66.61
2018-03-08T01:52:53.544Z,66.71
2018-03-08T01:53:53.790Z,66.33
2018-03-08T01:54:53.503Z,66.04
2018-03-08T01:55:53.746Z,65.56
2018-03-08T01:56:53.490Z,65.37
2018-03-08T01:57:53.708Z,65.37
2018-03-08T01:58:53.418Z,65
2018-03-08T01:59:53.397Z,65.19
2018-03-08T02:00:53.645Z,64.43
2018-03-08T02:01:53.626Z,63.95
2018-03-08T02:02:53.599Z,64.52
2018-03-08T02:03:53.583Z,63.86
2018-03-08T02:04:53.559Z,63.86
2018-03-08T02:05:53.538Z,63.48
2018-03-08T02:06:53.529Z,63.67
2018-03-08T02:07:53.230Z,63.48
2018-03-08T02:08:53.477Z,63.1
2018-03-08T02:09:53.190Z,63.01
2018-03-08T02:10:53.442Z,62.62
2018-03-08T02:11:53.151Z,63.01
2018-03-08T02:12:53.394Z,62.34
2018-03-08T02:13:53.106Z,62.34
2018-03-08T02:14:53.347Z,61.96
2018-03-08T02:15:53.071Z,62.34
2018-03-08T02:16:53.358Z,62.34
2018-03-08T02:17:53.286Z,62.15
2018-03-08T02:18:53.273Z,61.96
2018-03-08T02:19:53.251Z,62.62
2018-03-08T02:20:52.964Z,62.05
2018-03-08T02:21:52.942Z,61.87
2018-03-08T02:22:52.922Z,61.3
2018-03-08T02:23:52.902Z,61.58
2018-03-08T02:24:52.884Z,61.68
2018-03-08T02:25:52.859Z,61.3
2018-03-08T02:26:52.839Z,61.58
2018-03-08T02:27:53.083Z,61.58
2018-03-08T02:28:53.061Z,61.77
2018-03-08T02:29:52.773Z,61.77
2018-03-08T02:30:53.018Z,61.68
2018-03-08T02:31:53.003Z,61.87
2018-03-08T02:32:52.986Z,61.68
2018-03-08T02:33:52.690Z,61.77
2018-03-08T02:34:52.940Z,61.77
2018-03-08T02:35:52.938Z,61.77
2018-03-08T02:36:52.633Z,61.87
2018-03-08T02:37:52.618Z,61.58
2018-03-08T02:38:52.595Z,61.49
2018-03-08T02:39:52.566Z,62.34
2018-03-08T02:40:52.819Z,62.34
2018-03-08T02:41:52.530Z,62.34
2018-03-08T02:42:52.773Z,63.57
2018-03-08T02:43:52.496Z,63.86
2018-03-08T02:44:52.743Z,64.24
2018-03-08T02:45:52.716Z,63.95
2018-03-08T02:46:52.691Z,64.81
2018-03-08T02:47:52.405Z,64.52
2018-03-08T02:48:52.380Z,64.9
2018-03-08T02:49:52.371Z,64.81
2018-03-08T02:50:52.609Z,65
2018-03-08T02:51:52.593Z,65.28
2018-03-08T02:52:52.569Z,65.28
2018-03-08T02:53:52.549Z,65.47
2018-03-08T02:54:52.273Z,65.47
2018-03-08T02:55:52.503Z,65.75
2018-03-08T02:56:52.219Z,65.56
2018-03-08T02:57:52.468Z,65.56
2018-03-08T02:58:52.448Z,65.28
2018-03-08T02:59:52.425Z,65.47
2018-03-08T03:00:52.139Z,65.47
2018-03-08T03:01:52.381Z,65.66
2018-03-08T03:02:52.364Z,65.66
2018-03-08T03:03:52.075Z,65.75
2018-03-08T03:04:52.056Z,65.66
2018-03-08T03:05:52.036Z,65.66
2018-03-08T03:06:52.065Z,65.47
2018-03-08T03:07:52.262Z,65.56
2018-03-08T03:08:52.237Z,66.14
2018-03-08T03:09:52.276Z,65.85
2018-03-08T03:10:51.933Z,65.75
2018-03-08T03:11:51.911Z,66.33
2018-03-08T03:12:52.154Z,66.89
2018-03-08T03:13:52.138Z,66.89
2018-03-08T03:14:52.115Z,67.08
2018-03-08T03:15:52.092Z,66.71
2018-03-08T03:16:51.807Z,67.12
2018-03-08T03:17:52.057Z,66.89
2018-03-08T03:18:51.769Z,66.89
2018-03-08T03:19:51.750Z,67.37
2018-03-08T03:20:51.729Z,66.99
2018-03-08T03:21:51.976Z,67.18
2018-03-08T03:22:51.951Z,67.27
2018-03-08T03:23:51.929Z,67.27
2018-03-08T03:24:51.917Z,67.27
2018-03-08T03:25:51.896Z,66.99
2018-03-08T03:26:51.605Z,66.8
2018-03-08T03:27:51.588Z,66.61
2018-03-08T03:28:51.834Z,66.99
2018-03-08T03:29:51.810Z,67.08
2018-03-08T03:30:51.793Z,66.99
2018-03-08T03:31:51.504Z,67.27
2018-03-08T03:32:51.749Z,67.27
2018-03-08T03:33:51.729Z,67.08
2018-03-08T03:34:51.713Z,67.18
2018-03-08T03:35:51.894Z,67.18
2018-03-08T03:36:51.400Z,67.37
2018-03-08T03:37:51.653Z,67.18
2018-03-08T03:38:51.362Z,66.99
2018-03-08T03:39:51.340Z,66.99
2018-03-08T03:40:51.588Z,67.18
2018-03-08T03:41:51.303Z,67.08
2018-03-08T03:42:51.543Z,67.08
2018-03-08T03:43:51.260Z,66.99
2018-03-08T03:44:51.504Z,67.27
2018-03-08T03:45:51.487Z,67.18
2018-03-08T03:46:51.467Z,67.18
2018-03-08T03:47:51.442Z,67.08
2018-03-08T03:48:51.429Z,67.18
2018-03-08T03:49:51.137Z,66.89
2018-03-08T03:50:51.118Z,67.08
2018-03-08T03:51:51.360Z,66.99
2018-03-08T03:52:51.339Z,67.18
2018-03-08T03:53:51.058Z,67.08
2018-03-08T03:54:51.297Z,67.56
2018-03-08T03:55:51.321Z,67.56
2018-03-08T03:56:51.258Z,67.18
2018-03-08T03:57:51.244Z,68.04
2018-03-08T03:58:50.955Z,68.13
2018-03-08T03:59:50.937Z,68.23
2018-03-08T04:00:51.179Z,68.41
2018-03-08T04:01:51.164Z,68.7
2018-03-08T04:02:51.188Z,68.98
2018-03-08T04:03:50.857Z,68.7
2018-03-08T04:04:51.098Z,68.89
2018-03-08T04:05:51.078Z,69.27
2018-03-08T04:06:51.058Z,69.36
2018-03-08T04:07:51.036Z,69.17
2018-03-08T04:08:50.749Z,69.17
2018-03-08T04:09:50.729Z,69.36
2018-03-08T04:10:50.980Z,69.17
2018-03-08T04:11:50.689Z,68.89
2018-03-08T04:12:50.672Z,68.79
2018-03-08T04:13:50.918Z,68.7
2018-03-08T04:14:50.892Z,68.7
2018-03-08T04:15:50.611Z,68.89
2018-03-08T04:16:50.590Z,68.7
2018-03-08T04:17:50.836Z,68.7
2018-03-08T04:18:50.545Z,68.79
2018-03-08T04:19:50.845Z,69.36
2018-03-08T04:20:50.505Z,69.46
2018-03-08T04:21:50.487Z,68.98
2018-03-08T04:22:50.465Z,68.98
2018-03-08T04:23:50.713Z,69.27
2018-03-08T04:24:50.690Z,69.27
2018-03-08T04:25:50.671Z,69.55
2018-03-08T04:26:50.385Z,69.84
2018-03-08T04:27:50.362Z,69.65
2018-03-08T04:28:50.344Z,69.46
2018-03-08T04:29:50.323Z,69.74
2018-03-08T04:30:50.310Z,69.74
2018-03-08T04:31:50.284Z,69.84
2018-03-08T04:32:50.261Z,69.46
2018-03-08T04:33:50.242Z,69.74
2018-03-08T04:34:50.221Z,69.55
2018-03-08T04:35:50.200Z,69.65
2018-03-08T04:36:50.447Z,69.84
2018-03-08T04:37:50.433Z,70.31
2018-03-08T04:38:50.137Z,70.4
2018-03-08T04:39:50.383Z,70.88
2018-03-08T04:40:50.376Z,71.45
2018-03-08T04:41:50.347Z,70.69
2018-03-08T04:42:50.059Z,71.26
2018-03-08T04:43:50.301Z,71.36
2018-03-08T04:44:50.280Z,71.36
2018-03-08T04:45:50.006Z,71.36
2018-03-08T04:46:49.975Z,71.45
2018-03-08T04:47:50.225Z,71.45
2018-03-08T04:48:49.933Z,71.73
2018-03-08T04:49:49.914Z,72.3
2018-03-08T04:50:49.896Z,72.68
2018-03-08T04:51:49.871Z,72.78
2018-03-08T04:52:49.850Z,72.88
2018-03-08T04:53:50.100Z,73.07
2018-03-08T04:54:50.079Z,73.82
2018-03-08T04:55:49.792Z,73.63
2018-03-08T04:56:49.768Z,74.3
2018-03-08T04:57:49.751Z,74.01
2018-03-08T04:58:49.728Z,73.72
2018-03-08T04:59:49.973Z,74.11
2018-03-08T05:00:49.688Z,74.49
2018-03-08T05:01:49.668Z,74.49
2018-03-08T05:02:49.646Z,74.49
2018-03-08T05:03:49.625Z,74.3
2018-03-08T05:04:49.607Z,74.49
2018-03-08T05:05:49.587Z,74.39
2018-03-08T05:06:49.564Z,74.3
2018-03-08T05:07:49.813Z,74.3
2018-03-08T05:08:49.789Z,73.82
2018-03-08T05:09:49.765Z,74.2
2018-03-08T05:10:49.487Z,73.82
2018-03-08T05:11:49.467Z,74.87
2018-03-08T05:12:49.445Z,74.58
2018-03-08T05:13:49.420Z,74.68
2018-03-08T05:14:49.403Z,73.92
2018-03-08T05:15:49.646Z,73.92
2018-03-08T05:16:49.360Z,74.3
2018-03-08T05:17:49.608Z,73.72
2018-03-08T05:18:49.325Z,74.11
2018-03-08T05:19:49.565Z,74.11
2018-03-08T05:20:49.547Z,73.72
2018-03-08T05:21:49.525Z,73.35
2018-03-08T05:22:49.501Z,73.25
2018-03-08T05:23:49.265Z,73.63
2018-03-08T05:24:49.460Z,73.72
2018-03-08T05:25:49.436Z,72.68
2018-03-08T05:26:49.420Z,72.59
2018-03-08T05:27:49.398Z,72.59
2018-03-08T05:28:49.378Z,72.68
2018-03-08T05:29:49.357Z,72.3
2018-03-08T05:30:49.086Z,72.49
2018-03-08T05:31:49.316Z,72.3
2018-03-08T05:32:49.300Z,72.21
2018-03-08T05:33:49.007Z,72.11
2018-03-08T05:34:49.253Z,72.59
2018-03-08T05:35:49.377Z,71.83
2018-03-08T05:36:48.948Z,72.59
2018-03-08T05:37:49.206Z,73.16
2018-03-08T05:38:48.907Z,72.97
2018-03-08T05:39:48.889Z,73.35
2018-03-08T05:40:48.866Z,73.35
2018-03-08T05:41:49.114Z,72.97
2018-03-08T05:42:48.827Z,73.25
2018-03-08T05:43:48.807Z,73.25
2018-03-08T05:44:49.052Z,73.72
2018-03-08T05:45:48.772Z,73.63
2018-03-08T05:46:49.021Z,73.25
2018-03-08T05:47:48.990Z,73.82
2018-03-08T05:48:48.973Z,73.25
2018-03-08T05:49:48.684Z,73.82
2018-03-08T05:50:48.663Z,73.16
2018-03-08T05:51:48.908Z,73.25
2018-03-08T05:52:48.622Z,73.72
2018-03-08T05:53:48.868Z,73.41
2018-03-08T05:54:48.579Z,73.25
2018-03-08T05:55:48.824Z,73.22
2018-03-08T05:56:48.802Z,73.6
2018-03-08T05:57:48.787Z,73.22
2018-03-08T05:58:48.764Z,73.22
2018-03-08T05:59:48.474Z,73.5
2018-03-08T06:00:48.805Z,73.6
2018-03-08T06:01:48.699Z,73.69
2018-03-08T06:02:48.415Z,73.12
2018-03-08T06:03:48.656Z,73.03
2018-03-08T06:04:48.383Z,73.12
2018-03-08T06:05:48.615Z,73.22
2018-03-08T06:06:48.330Z,73.12
2018-03-08T06:07:48.313Z,72.64
2018-03-08T06:08:48.287Z,72.64
2018-03-08T06:09:48.529Z,72.74
2018-03-08T06:10:48.243Z,72.27
2018-03-08T06:11:48.494Z,72.55
2018-03-08T06:12:48.474Z,72.36
2018-03-08T06:13:48.450Z,72.55
2018-03-08T06:14:48.158Z,71.85
2018-03-08T06:15:48.410Z,72.36
2018-03-08T06:16:48.121Z,72.42
2018-03-08T06:17:48.094Z,72.8
2018-03-08T06:18:48.075Z,72.8
2018-03-08T06:19:48.053Z,72.52
2018-03-08T06:20:48.299Z,71.85
2018-03-08T06:21:48.275Z,72.23
2018-03-08T06:22:47.993Z,71.85
2018-03-08T06:23:48.233Z,71.66
2018-03-08T06:24:48.213Z,71.38
2018-03-08T06:25:48.190Z,71.66
2018-03-08T06:26:47.908Z,71.47
2018-03-08T06:27:47.893Z,72.14
2018-03-08T06:28:47.861Z,71.66
2018-03-08T06:29:47.842Z,71.85
2018-03-08T06:30:48.139Z,71.09
2018-03-08T06:31:48.061Z,71
2018-03-08T06:32:48.038Z,71.47
2018-03-08T06:33:48.029Z,71.28
2018-03-08T06:34:47.735Z,71.09
2018-03-08T06:35:47.711Z,71.28
2018-03-08T06:36:47.961Z,71.57
2018-03-08T06:37:47.936Z,71.28
2018-03-08T06:38:47.913Z,71.09
2018-03-08T06:39:47.892Z,71.19
2018-03-08T06:40:47.602Z,71.28
2018-03-08T06:41:47.851Z,71.19
2018-03-08T06:42:47.831Z,71.95
2018-03-08T06:43:47.539Z,71.76
2018-03-08T06:44:47.523Z,71.85
2018-03-08T06:45:47.504Z,71.57
2018-03-08T06:46:47.740Z,72.33
2018-03-08T06:47:47.458Z,72.89
2018-03-08T06:48:47.699Z,72.61
2018-03-08T06:49:47.677Z,72.71
2018-03-08T06:50:47.655Z,72.89
2018-03-08T06:51:47.367Z,73.03
2018-03-08T06:52:47.611Z,73.84
2018-03-08T06:53:47.596Z,73.5
2018-03-08T06:54:47.572Z,73.6
2018-03-08T06:55:47.283Z,74.45
2018-03-08T06:56:47.262Z,75.02
2018-03-08T06:57:47.245Z,75.21
2018-03-08T06:58:47.222Z,74.92
2018-03-08T06:59:47.199Z,75.31
2018-03-08T07:00:47.441Z,75.87
2018-03-08T07:01:47.428Z,76.06
2018-03-08T07:02:47.401Z,76.15
2018-03-08T07:03:47.378Z,76.15
2018-03-08T07:04:47.093Z,76.06
2018-03-08T07:05:47.333Z,76.06
2018-03-08T07:06:47.315Z,76.63
2018-03-08T07:07:47.031Z,77.01
2018-03-08T07:08:47.008Z,77.2
2018-03-08T07:09:47.317Z,77.86
2018-03-08T07:10:47.228Z,77.67
2018-03-08T07:11:47.210Z,78.43
2018-03-08T07:12:46.921Z,78.62
2018-03-08T07:13:47.169Z,78.72
2018-03-08T07:14:47.144Z,79.38
2018-03-08T07:15:47.202Z,78.91
2018-03-08T07:16:47.105Z,79.28
2018-03-08T07:17:46.818Z,79
2018-03-08T07:18:46.799Z,80.14
2018-03-08T07:19:47.050Z,80.04
2018-03-08T07:20:46.753Z,80.99
2018-03-08T07:21:46.742Z,81.32
2018-03-08T07:22:46.998Z,82.27
2018-03-08T07:23:46.967Z,81.6
2018-03-08T07:24:46.678Z,81.23
2018-03-08T07:25:46.650Z,81.7
2018-03-08T07:26:46.631Z,82.08
2018-03-08T07:27:46.881Z,82.17
2018-03-08T07:28:46.590Z,82.65
2018-03-08T07:29:46.832Z,82.46
2018-03-08T07:30:46.546Z,81.88
2018-03-08T07:31:46.526Z,82.27
2018-03-08T07:32:46.774Z,81.32
2018-03-08T07:33:46.752Z,81.79
2018-03-08T07:34:46.465Z,81.6
2018-03-08T07:35:46.445Z,81.51
2018-03-08T07:36:46.892Z,82.55
2018-03-08T07:37:46.400Z,82.27
2018-03-08T07:38:46.648Z,83.4
2018-03-08T07:39:46.363Z,82.93
2018-03-08T07:40:46.604Z,82.74
2018-03-08T07:41:46.322Z,83.31
2018-03-08T07:42:46.565Z,84.36
2018-03-08T07:43:46.540Z,83.59
2018-03-08T07:44:46.522Z,83.31
2018-03-08T07:45:46.505Z,83.59
2018-03-08T07:46:46.216Z,83.59
2018-03-08T07:47:46.199Z,84.64
2018-03-08T07:48:46.436Z,83.97
2018-03-08T07:49:46.420Z,85.21
2018-03-08T07:50:46.399Z,84.74
2018-03-08T07:51:46.140Z,86.16
2018-03-08T07:52:46.357Z,85.78
2018-03-08T07:53:46.335Z,85.78
2018-03-08T07:54:46.050Z,86.96
2018-03-08T07:55:46.296Z,87.62
2018-03-08T07:56:46.016Z,87.91
2018-03-08T07:57:46.255Z,88.39
2018-03-08T07:58:45.974Z,89.33
2018-03-08T07:59:46.212Z,89.9
2018-03-08T08:00:46.191Z,90.38
2018-03-08T08:01:45.908Z,89.14
2018-03-08T08:02:45.889Z,89.05
2018-03-08T08:03:46.134Z,89.24
2018-03-08T08:04:46.115Z,89.14
2018-03-08T08:05:46.092Z,89.24
2018-03-08T08:06:46.072Z,90
2018-03-08T08:07:46.052Z,90.47
2018-03-08T08:08:45.766Z,89.33
2018-03-08T08:09:45.745Z,90.95
2018-03-08T08:10:45.728Z,90
2018-03-08T08:11:45.970Z,89.14
2018-03-08T08:12:45.946Z,90.9
2018-03-08T08:13:45.929Z,91.09
2018-03-08T08:14:45.920Z,91.56
2018-03-08T08:15:45.622Z,93.27
2018-03-08T08:16:45.873Z,92.23
2018-03-08T08:17:45.586Z,92.51
2018-03-08T08:18:45.830Z,92.04
2018-03-08T08:19:45.547Z,91.85
2018-03-08T08:20:45.525Z,92.9
2018-03-08T08:21:45.772Z,90.8
2018-03-08T08:22:45.750Z,91.94
2018-03-08T08:23:45.733Z,91.85
2018-03-08T08:24:45.709Z,93.18
2018-03-08T08:25:45.423Z,92.23
2018-03-08T08:26:45.744Z,93.84
2018-03-08T08:27:45.652Z,99.97
2018-03-08T08:28:45.632Z,99.99
2018-03-08T08:29:45.625Z,99.99
2018-03-08T08:30:45.603Z,99.99
2018-03-08T08:31:45.592Z,99.99
2018-03-08T08:32:45.568Z,99.99
2018-03-08T08:33:45.547Z,99.99
2018-03-08T08:34:57.997Z,99.99
2018-03-08T08:35:45.247Z,99.99
2018-03-08T08:36:45.501Z,99.99
2018-03-08T08:37:45.267Z,99.99
2018-03-08T08:38:45.466Z,99.99
2018-03-08T08:39:45.189Z,99.99
2018-03-08T08:40:45.171Z,99.99
2018-03-08T08:41:45.155Z,99.99
2018-03-08T08:42:45.405Z,99.99
2018-03-08T08:43:45.438Z,99.99
2018-03-08T08:44:45.427Z,99.99
2018-03-08T08:45:45.372Z,99.99
2018-03-08T08:46:45.409Z,99.99
2018-03-08T08:47:45.077Z,99.99
2018-03-08T08:48:45.331Z,99.99
2018-03-08T08:49:45.312Z,99.99
2018-03-08T08:50:45.035Z,99.99
2018-03-08T08:51:45.288Z,99.99
2018-03-08T08:52:45.010Z,99.99
2018-03-08T08:53:45.274Z,99.99
2018-03-08T08:54:45.252Z,99.99
2018-03-08T08:55:44.979Z,99.99
2018-03-08T08:56:45.231Z,99.99
2018-03-08T08:57:45.217Z,99.99
2018-03-08T08:58:45.206Z,99.99
2018-03-08T08:59:44.926Z,99.99
2018-03-08T09:00:45.179Z,99.99
2018-03-08T09:01:45.170Z,99.99
2018-03-08T09:02:45.155Z,99.99
2018-03-08T09:03:44.879Z,99.99
2018-03-08T09:04:45.130Z,99.99
2018-03-08T09:05:45.134Z,99.99
2018-03-08T09:06:45.111Z,99.99
2018-03-08T09:07:44.827Z,99.99
2018-03-08T09:08:45.077Z,99.99
2018-03-08T09:09:45.067Z,99.99
2018-03-08T09:10:44.788Z,99.99
2018-03-08T09:11:44.776Z,99.99
2018-03-08T09:12:45.026Z,99.99
2018-03-08T09:13:44.757Z,99.99
2018-03-08T09:14:45.001Z,99.99
2018-03-08T09:15:44.734Z,99.99
2018-03-08T09:16:44.711Z,99.99
2018-03-08T09:17:44.701Z,99.99
2018-03-08T09:18:44.952Z,99.99
2018-03-08T09:19:44.671Z,99.99
2018-03-08T09:20:44.922Z,99.99
2018-03-08T09:21:44.906Z,99.99
2018-03-08T09:22:44.891Z,99.99
2018-03-08T09:23:44.613Z,99.99
2018-03-08T09:24:44.867Z,99.99
2018-03-08T09:25:44.849Z,99.99
2018-03-08T09:26:44.839Z,99.99
2018-03-08T09:27:44.565Z,99.99
2018-03-08T09:28:44.540Z,99.99
2018-03-08T09:29:44.526Z,99.99
2018-03-08T09:30:44.785Z,99.99
2018-03-08T09:31:44.499Z,99.99
2018-03-08T09:32:44.752Z,99.99
2018-03-08T09:33:44.739Z,99.99
2018-03-08T09:34:44.731Z,99.99
2018-03-08T09:35:44.713Z,99.99
2018-03-08T09:36:44.633Z,99.99
2018-03-08T09:37:44.693Z,99.99
2018-03-08T09:38:44.716Z,99.99
2018-03-08T09:39:44.390Z,99.99
2018-03-08T09:40:44.649Z,99.99
2018-03-08T09:41:44.627Z,99.99
2018-03-08T09:42:44.348Z,99.99
2018-03-08T09:43:44.376Z,99.99
2018-03-08T09:44:44.584Z,99.99
2018-03-08T09:45:44.567Z,99.99
2018-03-08T09:46:44.557Z,99.99
2018-03-08T09:47:44.541Z,99.99
2018-03-08T09:48:44.530Z,99.99
2018-03-08T09:49:44.248Z,99.99
2018-03-08T09:50:44.502Z,99.99
2018-03-08T09:51:44.236Z,99.99
2018-03-08T09:52:44.469Z,99.99
2018-03-08T09:53:44.194Z,99.99
2018-03-08T09:54:44.443Z,99.99
2018-03-08T09:55:44.164Z,99.99
2018-03-08T09:56:44.415Z,99.99
2018-03-08T09:57:44.399Z,99.99
2018-03-08T09:58:44.383Z,99.99
2018-03-08T09:59:44.371Z,99.99
2018-03-08T10:00:44.356Z,99.99
2018-03-08T10:01:44.341Z,99.99
2018-03-08T10:02:44.335Z,99.99
2018-03-08T10:03:44.310Z,99.99
2018-03-08T10:04:44.292Z,99.99
2018-03-08T10:05:44.276Z,99.99
2018-03-08T10:06:44.264Z,99.99
2018-03-08T10:07:43.981Z,99.99
2018-03-08T10:08:43.968Z,99.99
2018-03-08T10:09:44.219Z,99.99
2018-03-08T10:10:43.937Z,99.99
2018-03-08T10:11:43.922Z,99.99
2018-03-08T10:12:44.174Z,99.99
2018-03-08T10:13:44.156Z,99.99
2018-03-08T10:14:44.146Z,99.99
2018-03-08T10:15:43.858Z,99.99
2018-03-08T10:16:44.118Z,99.99
2018-03-08T10:17:44.116Z,99.99
2018-03-08T10:18:44.077Z,99.99
2018-03-08T10:19:43.796Z,99.99
2018-03-08T10:20:43.774Z,99.99
2018-03-08T10:21:47.504Z,99.99
2018-03-08T10:22:44.011Z,99.99
2018-03-08T10:23:43.997Z,99.99
2018-03-08T10:24:43.976Z,99.99
2018-03-08T10:25:43.961Z,99.99
2018-03-08T10:26:43.684Z,99.99
2018-03-08T10:27:43.932Z,99.99
2018-03-08T10:28:43.651Z,99.99
2018-03-08T10:29:43.631Z,99.99
2018-03-08T10:30:43.882Z,99.99
2018-03-08T10:31:43.864Z,99.99
2018-03-08T10:32:43.845Z,99.99
2018-03-08T10:33:43.835Z,99.99
2018-03-08T10:34:43.554Z,99.99
2018-03-08T10:35:43.534Z,99.99
2018-03-08T10:36:43.786Z,99.99
2018-03-08T10:37:43.502Z,99.99
2018-03-08T10:38:43.488Z,99.99
2018-03-08T10:39:43.503Z,99.99
2018-03-08T10:40:43.471Z,99.99
2018-03-08T10:41:46.450Z,99.99
2018-03-08T10:42:46.708Z,99.99
2018-03-08T10:43:43.672Z,99.99
2018-03-08T10:44:43.659Z,99.99
2018-03-08T10:45:43.378Z,99.99
2018-03-08T10:46:43.626Z,99.99
2018-03-08T10:47:43.609Z,99.99
2018-03-08T10:49:43.580Z,99.99
2018-03-08T10:50:43.573Z,99.99
2018-03-08T10:51:43.545Z,99.99
2018-03-08T10:52:43.529Z,99.99
2018-03-08T10:53:43.518Z,99.99
2018-03-08T10:54:43.234Z,99.99
2018-03-08T10:55:43.221Z,99.99
2018-03-08T10:56:43.204Z,99.99
2018-03-08T10:57:43.457Z,99.99
2018-03-08T10:58:43.439Z,99.99
2018-03-08T10:59:43.158Z,99.99
2018-03-08T11:00:43.410Z,99.99
2018-03-08T11:01:43.125Z,99.99
2018-03-08T11:02:43.373Z,99.99
2018-03-08T11:03:44.720Z,99.99
2018-03-08T11:04:43.341Z,99.99
2018-03-08T11:05:43.328Z,99.99
2018-03-08T11:06:43.044Z,99.99
2018-03-08T11:07:43.295Z,99.99
2018-03-08T11:08:43.283Z,99.99
2018-03-08T11:09:43.261Z,99.99
2018-03-08T11:10:43.248Z,99.99
2018-03-08T11:11:43.232Z,99.99
2018-03-08T11:12:43.227Z,99.99
2018-03-08T11:13:43.200Z,99.99
2018-03-08T11:14:43.182Z,99.99
2018-03-08T11:15:42.899Z,99.99
2018-03-08T11:16:42.883Z,99.99
2018-03-08T11:17:42.865Z,99.99
2018-03-08T11:18:43.117Z,99.99
2018-03-08T11:19:42.834Z,99.99
2018-03-08T11:20:42.818Z,99.99
2018-03-08T11:21:42.803Z,99.99
2018-03-08T11:22:43.051Z,99.99
2018-03-08T11:23:43.034Z,99.99
2018-03-08T11:24:43.015Z,99.99
2018-03-08T11:25:43.005Z,99.99
2018-03-08T11:26:42.725Z,99.99
2018-03-08T11:27:42.963Z,99.99
2018-03-08T11:28:42.949Z,99.99
2018-03-08T11:29:42.666Z,99.99
2018-03-08T11:30:42.650Z,99.99
2018-03-08T11:31:42.632Z,99.99
2018-03-08T11:32:42.616Z,99.99
2018-03-08T11:33:42.867Z,99.99
2018-03-08T11:34:42.580Z,99.99
2018-03-08T11:36:14.852Z,99.99
2018-03-08T11:36:42.821Z,99.99
2018-03-08T11:37:42.534Z,99.99
2018-03-08T11:38:42.512Z,99.99
2018-03-08T11:39:42.498Z,99.99
2018-03-08T11:40:43.461Z,99.99
2018-03-08T11:41:42.466Z,99.99
2018-03-08T11:42:42.707Z,99.99
2018-03-08T11:43:42.428Z,99.99
2018-03-08T11:44:42.419Z,99.99
2018-03-08T11:45:42.679Z,99.99
2018-03-08T11:46:42.653Z,99.99
2018-03-08T11:47:42.370Z,99.99
2018-03-08T11:48:42.651Z,99.99
2018-03-08T11:49:42.338Z,99.99
2018-03-08T11:50:42.321Z,99.99
2018-03-08T11:51:42.304Z,99.99
2018-03-08T11:52:42.561Z,99.99
2018-03-08T11:53:42.278Z,99.99
2018-03-08T11:54:42.281Z,99.99
2018-03-08T11:55:42.247Z,99.99
2018-03-08T11:56:42.238Z,99.99
2018-03-08T11:57:42.224Z,99.99
2018-03-08T11:58:42.209Z,99.99
2018-03-08T11:59:42.457Z,99.99
2018-03-08T12:00:42.445Z,99.99
2018-03-08T12:01:42.161Z,99.99
2018-03-08T12:02:42.418Z,99.99
2018-03-08T12:03:42.137Z,99.99
2018-03-08T12:04:42.118Z,99.99
2018-03-08T12:05:42.371Z,99.99
2018-03-08T12:06:42.093Z,99.99
2018-03-08T12:07:42.346Z,99.99
2018-03-08T12:08:42.058Z,99.99
2018-03-08T12:09:42.319Z,99.99
2018-03-08T12:10:42.309Z,99.99
2018-03-08T12:11:42.290Z,99.99
2018-03-08T12:12:42.271Z,99.99
2018-03-08T12:13:42.254Z,99.99
2018-03-08T12:14:42.244Z,99.99
2018-03-08T12:15:42.224Z,99.99
2018-03-08T12:16:41.942Z,99.99
2018-03-08T12:17:42.192Z,99.99
2018-03-08T12:18:42.183Z,99.99
2018-03-08T12:19:42.210Z,99.99
2018-03-08T12:20:41.881Z,99.99
2018-03-08T12:21:41.867Z,99.99
2018-03-08T12:22:41.852Z,99.99
2018-03-08T12:23:41.839Z,99.99
2018-03-08T12:24:41.822Z,99.99
2018-03-08T12:25:41.810Z,99.99
2018-03-08T12:26:42.055Z,99.99
2018-03-08T12:27:42.040Z,99.99
2018-03-08T12:28:42.026Z,99.99
2018-03-08T12:29:41.744Z,99.99
2018-03-08T12:30:41.995Z,99.99
2018-03-08T12:31:41.713Z,99.99
2018-03-08T12:32:41.965Z,99.99
2018-03-08T12:33:41.678Z,99.99
2018-03-08T12:34:41.930Z,99.99
2018-03-08T12:35:41.913Z,99.99
2018-03-08T12:36:41.632Z,99.99
2018-03-08T12:37:41.619Z,99.99
2018-03-08T12:38:41.599Z,99.99
2018-03-08T12:39:41.852Z,99.99
2018-03-08T12:40:41.567Z,99.99
2018-03-08T12:41:41.815Z,99.99
2018-03-08T12:42:41.804Z,99.99
2018-03-08T12:43:41.780Z,99.99
2018-03-08T12:44:41.765Z,99.99
2018-03-08T12:45:41.755Z,99.99
2018-03-08T12:46:41.731Z,99.99
2018-03-08T12:47:41.713Z,99.99
2018-03-08T12:48:41.764Z,99.99
2018-03-08T12:49:41.680Z,99.99
2018-03-08T12:50:41.663Z,99.99
2018-03-08T12:51:41.423Z,99.99
2018-03-08T12:52:41.364Z,99.99
2018-03-08T12:53:41.351Z,99.99
2018-03-08T12:54:41.333Z,99.99
2018-03-08T12:55:41.579Z,99.99